Washington, NJ (07882)

10:49 AM EDT on October 01, 2014 (GMT -0400)
Washington Twp | Change Station
CLOSE
Current Station
Personal Weather Station
Location: Washington, NJ
Elevation: 512 ft
Nearby Weather Stations

Elev 512 ft 40.77 °N, 74.99 °W | Updated 6 minutes ago

Overcast
Overcast
65.7 °F
Feels Like 65.7 °F
N
3.7
Wind Variable Wind from NNE

Today
High -- | Low -- °F
--% Chance of Precip.
Yesterday
High -- | Low -- °F
Precip. -- in
6:56 AM 6:42 PM
Waxing Crescent, 48% visible
Pressure 30.03 in
Visibility 10.0 miles
Clouds Few 3900 ft
Overcast 6000 ft
Dew Point 59 °F
Humidity 78%
Rainfall 0.00 in
Snow Depth Not available.
UV 1 out of 12
Pollen 2.00 out of 12
Air Quality Not available.
Flu Activity Not available.
METAR KSMQ 011353Z AUTO 35005KT 10SM FEW039 OVC060 18/13 A3003 RMK AO2 SLP169 T01830133

More Conditions Fewer Conditions

Pressure 30.03 in
Visibility 10.0 miles
Clouds Few 3900 ft
Overcast 6000 ft
Dew Point 59 °F
Humidity 78%
Rainfall 0.00 in
Snow Depth Not available.
UV 1 out of 12
Pollen 2.00 out of 12
Air Quality Not available.
Flu Activity Not available.
METAR KSMQ 011353Z AUTO 35005KT 10SM FEW039 OVC060 18/13 A3003 RMK AO2 SLP169 T01830133

More Conditions Fewer Conditions

10-Day Weather Forecast

Almanac

Astronomy

Oct. 01, 2014 Rise Set
Actual Time 6:56 AM EDT 6:42 PM EDT
Civil Twilight 6:29 AM EDT 7:09 PM EDT
Nautical Twilight 5:57 AM EDT 7:41 PM EDT
Astronomical Twilight 5:25 AM EDT 8:13 PM EDT
Moon 1:56 PM EDT No Moon Set
Length of Visible Light 12h 40m
Length of Day
11h 45m
Tomorrow will be 2m 40s shorter.
Waxing Crescent, 48% of the Moon is Illuminated
Today
Waxing Crescent
Oct 1
First Quarter
Oct 8
Full
Oct 15
Last Quarter
Oct 23
New

Today's Extremes

State Highs State Lows

Community

WunderPhotos

Upload Photos

1,757,960 photos uploaded!

Nearby

Snow Depth

Station Depth Elevation
No new snow has been reported.

Earthquake Activity

City Distance Mag. Time & Date
No recent earthquake activity has been reported nearby.
Minimum magnitude displayed is 2.5.

Coastal Water Temperatures

Place Temperature
No Stations Reporting

Nearby Weather Stations